sensor_id;sensor_type;location;lat;lon;timestamp;pressure;altitude;pressure_sealevel;temperature;humidity
76766;BME280;65707;52.362;6.588;2022-12-16T00:01:22;101015.88;;;-1.19;75.19
76766;BME280;65707;52.362;6.588;2022-12-16T00:03:51;101014.25;;;-1.22;75.08
76766;BME280;65707;52.362;6.588;2022-12-16T00:06:20;101019.78;;;-1.26;75.57
76766;BME280;65707;52.362;6.588;2022-12-16T00:08:49;101025.00;;;-1.11;75.20
76766;BME280;65707;52.362;6.588;2022-12-16T00:11:16;101022.41;;;-0.97;75.08
76766;BME280;65707;52.362;6.588;2022-12-16T00:13:46;101022.69;;;-0.87;74.88
76766;BME280;65707;52.362;6.588;2022-12-16T00:16:14;101031.34;;;-0.85;74.61
76766;BME280;65707;52.362;6.588;2022-12-16T00:18:42;101021.94;;;-0.75;74.19
76766;BME280;65707;52.362;6.588;2022-12-16T00:21:10;101021.31;;;-0.79;73.75
76766;BME280;65707;52.362;6.588;2022-12-16T00:23:37;101025.91;;;-0.68;73.94
76766;BME280;65707;52.362;6.588;2022-12-16T00:26:06;101025.91;;;-0.68;74.02
76766;BME280;65707;52.362;6.588;2022-12-16T00:28:33;101028.06;;;-0.75;74.17
76766;BME280;65707;52.362;6.588;2022-12-16T00:31:01;101021.75;;;-0.72;74.00
76766;BME280;65707;52.362;6.588;2022-12-16T00:33:29;101023.75;;;-0.62;73.93
76766;BME280;65707;52.362;6.588;2022-12-16T00:35:56;101025.06;;;-0.55;74.03
76766;BME280;65707;52.362;6.588;2022-12-16T00:38:24;101024.22;;;-0.41;73.34
76766;BME280;65707;52.362;6.588;2022-12-16T00:40:52;101023.94;;;-0.37;73.65
76766;BME280;65707;52.362;6.588;2022-12-16T00:43:19;101023.56;;;-0.31;73.40
76766;BME280;65707;52.362;6.588;2022-12-16T00:45:47;101016.69;;;-0.19;72.59
76766;BME280;65707;52.362;6.588;2022-12-16T00:48:15;101009.88;;;-0.09;72.36
76766;BME280;65707;52.362;6.588;2022-12-16T00:50:45;101017.22;;;0.00;72.45
76766;BME280;65707;52.362;6.588;2022-12-16T00:53:14;101020.97;;;-0.04;72.52
76766;BME280;65707;52.362;6.588;2022-12-16T00:55:41;101021.63;;;-0.01;72.69
76766;BME280;65707;52.362;6.588;2022-12-16T00:58:09;101021.16;;;0.07;72.26
76766;BME280;65707;52.362;6.588;2022-12-16T01:00:35;101013.22;;;0.07;72.43
76766;BME280;65707;52.362;6.588;2022-12-16T01:03:03;101019.53;;;0.19;72.53
76766;BME280;65707;52.362;6.588;2022-12-16T01:05:32;101024.91;;;0.17;71.61
76766;BME280;65707;52.362;6.588;2022-12-16T01:07:59;101028.91;;;0.23;71.90
76766;BME280;65707;52.362;6.588;2022-12-16T01:10:25;101026.22;;;0.37;71.49
76766;BME280;65707;52.362;6.588;2022-12-16T01:12:52;101022.06;;;0.47;70.97
76766;BME280;65707;52.362;6.588;2022-12-16T01:15:19;101032.22;;;0.26;71.48
76766;BME280;65707;52.362;6.588;2022-12-16T01:17:46;101030.22;;;0.30;71.14
76766;BME280;65707;52.362;6.588;2022-12-16T01:20:12;101027.03;;;0.51;70.59
76766;BME280;65707;52.362;6.588;2022-12-16T01:22:41;101029.72;;;0.64;70.62
76766;BME280;65707;52.362;6.588;2022-12-16T01:25:10;101039.44;;;0.76;70.11
76766;BME280;65707;52.362;6.588;2022-12-16T01:27:38;101033.88;;;0.80;70.01
76766;BME280;65707;52.362;6.588;2022-12-16T01:30:05;101050.69;;;0.92;69.59
76766;BME280;65707;52.362;6.588;2022-12-16T01:32:34;101050.94;;;1.01;69.30
76766;BME280;65707;52.362;6.588;2022-12-16T01:35:01;101056.88;;;1.05;69.69
76766;BME280;65707;52.362;6.588;2022-12-16T01:37:27;101063.44;;;0.73;70.66
76766;BME280;65707;52.362;6.588;2022-12-16T01:39:56;101064.25;;;1.00;69.65
76766;BME280;65707;52.362;6.588;2022-12-16T01:42:22;101060.94;;;0.96;69.31
76766;BME280;65707;52.362;6.588;2022-12-16T01:44:53;101059.78;;;0.88;69.50
76766;BME280;65707;52.362;6.588;2022-12-16T01:47:23;101071.41;;;0.98;70.24
76766;BME280;65707;52.362;6.588;2022-12-16T01:49:57;101072.59;;;0.94;69.79
76766;BME280;65707;52.362;6.588;2022-12-16T01:52:30;101073.13;;;0.99;69.62
76766;BME280;65707;52.362;6.588;2022-12-16T01:55:06;101076.06;;;1.07;69.65
76766;BME280;65707;52.362;6.588;2022-12-16T01:57:41;101082.19;;;0.95;69.52
76766;BME280;65707;52.362;6.588;2022-12-16T02:00:13;101097.59;;;0.88;69.93
76766;BME280;65707;52.362;6.588;2022-12-16T02:02:41;101100.63;;;0.82;71.05
76766;BME280;65707;52.362;6.588;2022-12-16T02:05:13;101100.19;;;0.76;71.25
76766;BME280;65707;52.362;6.588;2022-12-16T02:07:53;101102.81;;;0.76;71.57
76766;BME280;65707;52.362;6.588;2022-12-16T02:10:32;101099.63;;;0.71;72.90
76766;BME280;65707;52.362;6.588;2022-12-16T02:13:18;101094.84;;;0.63;72.57
76766;BME280;65707;52.362;6.588;2022-12-16T02:15:57;101092.53;;;0.59;73.55
76766;BME280;65707;52.362;6.588;2022-12-16T02:18:40;101092.75;;;0.42;74.27
76766;BME280;65707;52.362;6.588;2022-12-16T02:21:37;101088.69;;;0.50;74.43
76766;BME280;65707;52.362;6.588;2022-12-16T02:24:30;101093.97;;;0.50;74.95
76766;BME280;65707;52.362;6.588;2022-12-16T02:27:54;101088.59;;;0.52;74.89
76766;BME280;65707;52.362;6.588;2022-12-16T02:33:43;101091.91;;;0.41;75.50
76766;BME280;65707;52.362;6.588;2022-12-16T02:36:25;101096.56;;;0.38;75.14
76766;BME280;65707;52.362;6.588;2022-12-16T02:39:11;101100.06;;;0.24;76.01
76766;BME280;65707;52.362;6.588;2022-12-16T02:41:43;101094.69;;;0.12;76.88
76766;BME280;65707;52.362;6.588;2022-12-16T02:44:16;101099.19;;;0.24;76.91
76766;BME280;65707;52.362;6.588;2022-12-16T02:46:54;101099.03;;;0.27;76.81
76766;BME280;65707;52.362;6.588;2022-12-16T02:49:49;101106.53;;;0.47;75.83
76766;BME280;65707;52.362;6.588;2022-12-16T02:52:21;101092.09;;;0.38;76.50
76766;BME280;65707;52.362;6.588;2022-12-16T02:54:53;101103.78;;;0.48;76.22
76766;BME280;65707;52.362;6.588;2022-12-16T02:57:40;101101.09;;;0.62;76.04
76766;BME280;65707;52.362;6.588;2022-12-16T03:00:18;101092.13;;;0.65;75.68
76766;BME280;65707;52.362;6.588;2022-12-16T03:02:52;101102.94;;;0.48;76.05
76766;BME280;65707;52.362;6.588;2022-12-16T03:05:25;101107.44;;;0.46;76.22
76766;BME280;65707;52.362;6.588;2022-12-16T03:07:57;101108.47;;;0.57;76.52
76766;BME280;65707;52.362;6.588;2022-12-16T03:10:30;101111.56;;;0.64;76.09
76766;BME280;65707;52.362;6.588;2022-12-16T03:13:04;101121.38;;;0.62;76.54
76766;BME280;65707;52.362;6.588;2022-12-16T03:15:34;101125.41;;;0.67;76.42
76766;BME280;65707;52.362;6.588;2022-12-16T03:18:04;101127.50;;;0.62;76.48
76766;BME280;65707;52.362;6.588;2022-12-16T03:20:36;101133.22;;;0.69;76.26
76766;BME280;65707;52.362;6.588;2022-12-16T03:23:09;101137.72;;;0.81;76.42
76766;BME280;65707;52.362;6.588;2022-12-16T03:25:43;101139.13;;;0.86;75.88
76766;BME280;65707;52.362;6.588;2022-12-16T03:28:25;101137.97;;;0.90;76.11
76766;BME280;65707;52.362;6.588;2022-12-16T03:31:02;101145.28;;;0.99;75.93
76766;BME280;65707;52.362;6.588;2022-12-16T03:33:40;101137.59;;;1.09;74.79
76766;BME280;65707;52.362;6.588;2022-12-16T03:36:17;101144.03;;;1.05;74.85
76766;BME280;65707;52.362;6.588;2022-12-16T03:38:48;101139.69;;;1.04;75.23
76766;BME280;65707;52.362;6.588;2022-12-16T03:41:18;101142.38;;;0.90;75.28
76766;BME280;65707;52.362;6.588;2022-12-16T03:43:48;101135.78;;;0.97;75.24
76766;BME280;65707;52.362;6.588;2022-12-16T03:46:15;101139.03;;;0.88;75.27
76766;BME280;65707;52.362;6.588;2022-12-16T03:48:49;101151.56;;;0.84;75.58
76766;BME280;65707;52.362;6.588;2022-12-16T03:51:17;101139.41;;;0.82;76.05
76766;BME280;65707;52.362;6.588;2022-12-16T03:53:45;101156.81;;;0.98;75.21
76766;BME280;65707;52.362;6.588;2022-12-16T03:56:12;101163.19;;;1.08;75.14
76766;BME280;65707;52.362;6.588;2022-12-16T03:58:39;101162.75;;;1.02;75.82
76766;BME280;65707;52.362;6.588;2022-12-16T04:01:06;101165.91;;;1.07;75.15
76766;BME280;65707;52.362;6.588;2022-12-16T04:03:34;101153.91;;;0.89;75.51
76766;BME280;65707;52.362;6.588;2022-12-16T04:06:04;101162.94;;;0.99;75.75
76766;BME280;65707;52.362;6.588;2022-12-16T04:08:32;101158.63;;;0.84;75.84
76766;BME280;65707;52.362;6.588;2022-12-16T04:10:59;101162.25;;;0.83;76.29
76766;BME280;65707;52.362;6.588;2022-12-16T04:13:43;101162.94;;;0.99;76.05
76766;BME280;65707;52.362;6.588;2022-12-16T04:16:28;101160.41;;;0.97;75.56
76766;BME280;65707;52.362;6.588;2022-12-16T04:19:19;101165.72;;;1.10;75.96
76766;BME280;65707;52.362;6.588;2022-12-16T04:22:12;101163.66;;;1.27;75.19
76766;BME280;65707;52.362;6.588;2022-12-16T04:25:05;101159.22;;;1.28;74.77
76766;BME280;65707;52.362;6.588;2022-12-16T04:27:35;101171.22;;;1.19;75.32
76766;BME280;65707;52.362;6.588;2022-12-16T04:30:03;101177.16;;;1.23;75.19
76766;BME280;65707;52.362;6.588;2022-12-16T04:32:48;101173.72;;;0.82;76.29
76766;BME280;65707;52.362;6.588;2022-12-16T04:35:35;101180.88;;;0.94;76.21
76766;BME280;65707;52.362;6.588;2022-12-16T04:38:20;101182.41;;;1.10;76.25
76766;BME280;65707;52.362;6.588;2022-12-16T04:41:05;101186.25;;;1.19;76.15
76766;BME280;65707;52.362;6.588;2022-12-16T04:43:49;101184.75;;;1.15;75.91
76766;BME280;65707;52.362;6.588;2022-12-16T04:46:45;101188.56;;;1.11;76.31
76766;BME280;65707;52.362;6.588;2022-12-16T04:49:38;101183.69;;;1.05;76.35
76766;BME280;65707;52.362;6.588;2022-12-16T04:52:22;101184.34;;;1.08;76.49
76766;BME280;65707;52.362;6.588;2022-12-16T04:55:08;101187.44;;;1.01;76.03
76766;BME280;65707;52.362;6.588;2022-12-16T04:57:56;101189.00;;;0.91;76.84
76766;BME280;65707;52.362;6.588;2022-12-16T05:00:42;101184.44;;;0.93;77.02
76766;BME280;65707;52.362;6.588;2022-12-16T05:03:27;101188.03;;;0.92;77.06
76766;BME280;65707;52.362;6.588;2022-12-16T05:06:12;101181.38;;;0.86;77.46
76766;BME280;65707;52.362;6.588;2022-12-16T05:08:57;101176.63;;;0.91;77.34
76766;BME280;65707;52.362;6.588;2022-12-16T05:11:44;101194.97;;;1.07;77.37
76766;BME280;65707;52.362;6.588;2022-12-16T05:14:28;101196.06;;;1.17;76.94
76766;BME280;65707;52.362;6.588;2022-12-16T05:17:13;101191.03;;;1.26;76.73
76766;BME280;65707;52.362;6.588;2022-12-16T05:20:00;101183.56;;;1.33;76.18
76766;BME280;65707;52.362;6.588;2022-12-16T05:22:44;101191.38;;;1.34;76.50
76766;BME280;65707;52.362;6.588;2022-12-16T05:25:28;101190.53;;;1.34;76.07
76766;BME280;65707;52.362;6.588;2022-12-16T05:28:14;101188.84;;;1.33;76.26
76766;BME280;65707;52.362;6.588;2022-12-16T05:30:58;101191.72;;;1.42;75.42
76766;BME280;65707;52.362;6.588;2022-12-16T05:33:43;101190.97;;;1.40;75.79
76766;BME280;65707;52.362;6.588;2022-12-16T05:36:39;101192.47;;;1.44;75.50
76766;BME280;65707;52.362;6.588;2022-12-16T05:39:23;101195.75;;;1.48;75.69
76766;BME280;65707;52.362;6.588;2022-12-16T05:42:07;101199.41;;;1.33;75.50
76766;BME280;65707;52.362;6.588;2022-12-16T05:44:53;101206.88;;;1.26;76.14
76766;BME280;65707;52.362;6.588;2022-12-16T05:47:38;101211.22;;;1.27;75.83
76766;BME280;65707;52.362;6.588;2022-12-16T05:50:28;101213.44;;;1.21;76.02
76766;BME280;65707;52.362;6.588;2022-12-16T05:53:08;101215.31;;;1.19;76.19
76766;BME280;65707;52.362;6.588;2022-12-16T05:55:52;101217.97;;;1.19;76.00
76766;BME280;65707;52.362;6.588;2022-12-16T05:58:37;101210.16;;;1.17;76.12
76766;BME280;65707;52.362;6.588;2022-12-16T06:01:22;101211.78;;;1.06;76.44
76766;BME280;65707;52.362;6.588;2022-12-16T06:04:07;101216.75;;;0.84;76.98
76766;BME280;65707;52.362;6.588;2022-12-16T06:06:51;101228.16;;;0.84;77.01
76766;BME280;65707;52.362;6.588;2022-12-16T06:09:38;101229.19;;;0.82;77.23
76766;BME280;65707;52.362;6.588;2022-12-16T06:12:22;101222.97;;;0.83;77.53
76766;BME280;65707;52.362;6.588;2022-12-16T06:15:08;101231.66;;;0.85;78.25
76766;BME280;65707;52.362;6.588;2022-12-16T06:17:54;101229.25;;;0.94;78.09
76766;BME280;65707;52.362;6.588;2022-12-16T06:20:35;101232.50;;;0.71;78.42
76766;BME280;65707;52.362;6.588;2022-12-16T06:23:20;101224.03;;;1.07;77.08
76766;BME280;65707;52.362;6.588;2022-12-16T06:26:05;101232.16;;;1.04;76.79
76766;BME280;65707;52.362;6.588;2022-12-16T06:28:58;101239.19;;;0.91;77.22
76766;BME280;65707;52.362;6.588;2022-12-16T06:31:44;101233.06;;;0.90;77.03
76766;BME280;65707;52.362;6.588;2022-12-16T06:34:30;101231.50;;;0.74;78.21
76766;BME280;65707;52.362;6.588;2022-12-16T06:37:14;101235.06;;;0.73;77.81
76766;BME280;65707;52.362;6.588;2022-12-16T06:39:59;101247.34;;;0.74;78.49
76766;BME280;65707;52.362;6.588;2022-12-16T06:42:43;101256.28;;;0.57;78.40
76766;BME280;65707;52.362;6.588;2022-12-16T06:45:27;101261.56;;;0.57;79.12
76766;BME280;65707;52.362;6.588;2022-12-16T06:48:11;101264.88;;;0.61;78.82
76766;BME280;65707;52.362;6.588;2022-12-16T06:50:57;101277.69;;;0.67;78.66
76766;BME280;65707;52.362;6.588;2022-12-16T06:53:42;101262.03;;;0.64;78.11
76766;BME280;65707;52.362;6.588;2022-12-16T06:56:38;101271.09;;;0.60;78.58
76766;BME280;65707;52.362;6.588;2022-12-16T06:59:22;101275.81;;;0.55;78.46
76766;BME280;65707;52.362;6.588;2022-12-16T07:02:08;101287.13;;;0.57;79.11
76766;BME280;65707;52.362;6.588;2022-12-16T07:04:54;101275.81;;;0.69;78.58
76766;BME280;65707;52.362;6.588;2022-12-16T07:07:46;101278.38;;;0.70;78.12
76766;BME280;65707;52.362;6.588;2022-12-16T07:10:30;101284.41;;;0.72;78.67
76766;BME280;65707;52.362;6.588;2022-12-16T07:13:16;101286.75;;;0.77;78.67
76766;BME280;65707;52.362;6.588;2022-12-16T07:16:00;101291.44;;;0.86;78.07
76766;BME280;65707;52.362;6.588;2022-12-16T07:18:44;101297.13;;;0.66;78.85
76766;BME280;65707;52.362;6.588;2022-12-16T07:21:29;101304.47;;;0.89;77.88
76766;BME280;65707;52.362;6.588;2022-12-16T07:24:15;101305.53;;;0.86;78.01
76766;BME280;65707;52.362;6.588;2022-12-16T07:26:59;101306.25;;;0.88;78.00
76766;BME280;65707;52.362;6.588;2022-12-16T07:29:43;101314.06;;;0.90;78.52
76766;BME280;65707;52.362;6.588;2022-12-16T07:32:27;101313.22;;;1.03;78.19
76766;BME280;65707;52.362;6.588;2022-12-16T07:35:12;101320.50;;;1.00;78.24
76766;BME280;65707;52.362;6.588;2022-12-16T07:37:53;101328.03;;;1.06;76.99
76766;BME280;65707;52.362;6.588;2022-12-16T07:40:39;101333.31;;;1.06;77.50
76766;BME280;65707;52.362;6.588;2022-12-16T07:43:23;101340.66;;;1.15;77.08
76766;BME280;65707;52.362;6.588;2022-12-16T07:46:07;101332.91;;;1.12;77.18
76766;BME280;65707;52.362;6.588;2022-12-16T07:48:51;101345.84;;;1.16;nan
76766;BME280;65707;52.362;6.588;2022-12-16T07:51:50;101347.38;;;1.06;77.28
76766;BME280;65707;52.362;6.588;2022-12-16T07:54:35;101347.09;;;1.11;77.03
76766;BME280;65707;52.362;6.588;2022-12-16T07:57:23;101348.97;;;1.09;77.27
76766;BME280;65707;52.362;6.588;2022-12-16T08:00:08;101353.31;;;1.24;76.88
76766;BME280;65707;52.362;6.588;2022-12-16T08:02:53;101364.91;;;1.21;77.07
76766;BME280;65707;52.362;6.588;2022-12-16T08:05:38;101353.31;;;1.24;76.80
76766;BME280;65707;52.362;6.588;2022-12-16T08:08:22;101361.34;;;1.22;76.58
76766;BME280;65707;52.362;6.588;2022-12-16T08:11:07;101373.50;;;1.25;76.54
76766;BME280;65707;52.362;6.588;2022-12-16T08:13:53;101373.59;;;1.09;76.63
76766;BME280;65707;52.362;6.588;2022-12-16T08:16:37;101389.75;;;1.05;77.27
76766;BME280;65707;52.362;6.588;2022-12-16T08:19:21;101393.22;;;1.19;77.01
76766;BME280;65707;52.362;6.588;2022-12-16T08:22:06;101395.59;;;1.24;77.22
76766;BME280;65707;52.362;6.588;2022-12-16T08:24:51;101401.81;;;1.09;77.19
76766;BME280;65707;52.362;6.588;2022-12-16T08:27:36;101404.06;;;1.15;77.49
76766;BME280;65707;52.362;6.588;2022-12-16T08:30:21;101407.09;;;1.23;77.10
76766;BME280;65707;52.362;6.588;2022-12-16T08:33:06;101406.44;;;1.33;76.48
76766;BME280;65707;52.362;6.588;2022-12-16T08:35:50;101416.75;;;1.24;76.54
76766;BME280;65707;52.362;6.588;2022-12-16T08:38:34;101423.72;;;1.25;76.77
76766;BME280;65707;52.362;6.588;2022-12-16T08:41:19;101420.97;;;1.26;76.37
76766;BME280;65707;52.362;6.588;2022-12-16T08:44:03;101416.25;;;1.17;76.84
76766;BME280;65707;52.362;6.588;2022-12-16T08:46:49;101426.34;;;1.39;77.06
76766;BME280;65707;52.362;6.588;2022-12-16T08:49:33;101432.00;;;1.33;77.53
76766;BME280;65707;52.362;6.588;2022-12-16T08:52:17;101440.97;;;1.58;77.48
76766;BME280;65707;52.362;6.588;2022-12-16T08:55:02;101438.22;;;1.60;76.67
76766;BME280;65707;52.362;6.588;2022-12-16T08:57:43;101443.22;;;1.65;76.15
76766;BME280;65707;52.362;6.588;2022-12-16T09:00:35;101449.91;;;1.56;76.12
76766;BME280;65707;52.362;6.588;2022-12-16T09:03:21;101447.56;;;1.51;76.66
76766;BME280;65707;52.362;6.588;2022-12-16T09:06:06;101457.19;;;1.52;76.88
76766;BME280;65707;52.362;6.588;2022-12-16T09:08:50;101459.84;;;1.38;77.83
76766;BME280;65707;52.362;6.588;2022-12-16T09:11:35;101461.94;;;1.33;77.90
76766;BME280;65707;52.362;6.588;2022-12-16T09:14:20;101468.06;;;1.34;78.15
76766;BME280;65707;52.362;6.588;2022-12-16T09:17:04;101460.91;;;1.36;78.29
76766;BME280;65707;52.362;6.588;2022-12-16T09:19:50;101471.09;;;1.42;78.03
76766;BME280;65707;52.362;6.588;2022-12-16T09:22:34;101474.59;;;1.42;77.95
76766;BME280;65707;52.362;6.588;2022-12-16T09:25:19;101473.72;;;1.42;78.57
76766;BME280;65707;52.362;6.588;2022-12-16T09:28:04;101475.06;;;1.49;78.25
76766;BME280;65707;52.362;6.588;2022-12-16T09:33:56;101492.44;;;1.53;77.98
76766;BME280;65707;52.362;6.588;2022-12-16T09:36:44;101493.00;;;1.44;78.10
76766;BME280;65707;52.362;6.588;2022-12-16T09:39:28;101489.59;;;1.42;78.52
76766;BME280;65707;52.362;6.588;2022-12-16T09:42:20;101506.41;;;1.55;77.97
76766;BME280;65707;52.362;6.588;2022-12-16T09:45:17;101507.25;;;1.41;78.17
76766;BME280;65707;52.362;6.588;2022-12-16T09:48:11;101514.16;;;1.44;78.58
76766;BME280;65707;52.362;6.588;2022-12-16T09:51:04;101519.91;;;1.50;78.70
76766;BME280;65707;52.362;6.588;2022-12-16T09:53:53;101515.66;;;1.48;78.68
76766;BME280;65707;52.362;6.588;2022-12-16T09:56:40;101523.19;;;1.54;78.92
76766;BME280;65707;52.362;6.588;2022-12-16T09:59:29;101524.34;;;1.64;78.07
76766;BME280;65707;52.362;6.588;2022-12-16T10:02:21;101527.47;;;1.56;78.76
76766;BME280;65707;52.362;6.588;2022-12-16T10:05:09;101532.00;;;1.69;77.98
76766;BME280;65707;52.362;6.588;2022-12-16T10:08:00;101536.59;;;1.65;78.44
76766;BME280;65707;52.362;6.588;2022-12-16T10:11:00;101534.44;;;1.72;77.75
76766;BME280;65707;52.362;6.588;2022-12-16T10:13:54;101529.91;;;1.59;78.07
76766;BME280;65707;52.362;6.588;2022-12-16T10:16:57;101549.69;;;1.68;77.66
76766;BME280;65707;52.362;6.588;2022-12-16T10:19:52;101538.03;;;1.71;78.12
76766;BME280;65707;52.362;6.588;2022-12-16T10:22:48;101539.00;;;1.70;77.79
76766;BME280;65707;52.362;6.588;2022-12-16T10:25:42;101540.59;;;1.72;78.20
76766;BME280;65707;52.362;6.588;2022-12-16T10:28:44;101552.38;;;1.95;78.03
76766;BME280;65707;52.362;6.588;2022-12-16T10:31:29;101548.88;;;2.08;77.13
76766;BME280;65707;52.362;6.588;2022-12-16T10:34:17;101546.22;;;2.08;77.65
76766;BME280;65707;52.362;6.588;2022-12-16T10:37:03;101540.72;;;2.11;77.67
76766;BME280;65707;52.362;6.588;2022-12-16T10:39:50;101554.53;;;2.16;76.63
76766;BME280;65707;52.362;6.588;2022-12-16T10:42:43;101550.06;;;2.31;76.56
76766;BME280;65707;52.362;6.588;2022-12-16T10:45:37;101553.03;;;2.39;75.82
76766;BME280;65707;52.362;6.588;2022-12-16T10:48:28;101562.38;;;2.44;76.29
76766;BME280;65707;52.362;6.588;2022-12-16T10:51:16;101551.59;;;2.47;76.29
76766;BME280;65707;52.362;6.588;2022-12-16T10:54:24;101550.84;;;2.45;75.99
76766;BME280;65707;52.362;6.588;2022-12-16T10:57:27;101548.34;;;2.56;75.85
76766;BME280;65707;52.362;6.588;2022-12-16T11:00:39;101550.19;;;2.68;74.83
76766;BME280;65707;52.362;6.588;2022-12-16T11:03:28;101548.88;;;2.61;75.77
76766;BME280;65707;52.362;6.588;2022-12-16T11:06:19;101553.78;;;2.67;74.95
76766;BME280;65707;52.362;6.588;2022-12-16T11:09:19;101554.63;;;2.68;75.30
76766;BME280;65707;52.362;6.588;2022-12-16T11:12:22;101553.78;;;2.67;75.18
76766;BME280;65707;52.362;6.588;2022-12-16T11:15:24;101559.25;;;2.52;76.15
76766;BME280;65707;52.362;6.588;2022-12-16T11:18:13;101554.25;;;2.47;76.28
76766;BME280;65707;52.362;6.588;2022-12-16T11:21:10;101557.81;;;2.60;76.10
76766;BME280;65707;52.362;6.588;2022-12-16T11:24:10;101566.78;;;2.58;75.58
76766;BME280;65707;52.362;6.588;2022-12-16T11:26:59;101567.94;;;2.54;76.41
76766;BME280;65707;52.362;6.588;2022-12-16T11:29:49;101571.66;;;2.51;76.35
76766;BME280;65707;52.362;6.588;2022-12-16T11:32:41;101566.19;;;2.40;76.83
76766;BME280;65707;52.362;6.588;2022-12-16T11:35:33;101572.22;;;2.42;77.39
76766;BME280;65707;52.362;6.588;2022-12-16T11:38:25;101570.50;;;2.55;77.17
76766;BME280;65707;52.362;6.588;2022-12-16T11:41:21;101570.63;;;2.66;76.61
76766;BME280;65707;52.362;6.588;2022-12-16T11:44:15;101571.22;;;2.84;76.85
76766;BME280;65707;52.362;6.588;2022-12-16T11:47:08;101582.44;;;2.75;76.60
76766;BME280;65707;52.362;6.588;2022-12-16T11:50:00;101580.56;;;2.89;76.69
76766;BME280;65707;52.362;6.588;2022-12-16T11:52:53;101585.91;;;3.02;76.39
76766;BME280;65707;52.362;6.588;2022-12-16T11:55:39;101583.13;;;2.91;76.39
76766;BME280;65707;52.362;6.588;2022-12-16T11:58:30;101588.16;;;2.81;77.15
76766;BME280;65707;52.362;6.588;2022-12-16T12:01:26;101584.19;;;2.88;77.50
76766;BME280;65707;52.362;6.588;2022-12-16T12:04:15;101583.31;;;2.88;77.76
76766;BME280;65707;52.362;6.588;2022-12-16T12:07:20;101581.25;;;3.05;77.14
76766;BME280;65707;52.362;6.588;2022-12-16T12:10:26;101586.53;;;2.93;77.49
76766;BME280;65707;52.362;6.588;2022-12-16T12:13:42;101594.13;;;2.85;78.00
76766;BME280;65707;52.362;6.588;2022-12-16T12:16:42;101580.03;;;2.97;78.20
76766;BME280;65707;52.362;6.588;2022-12-16T12:19:45;101585.31;;;3.24;77.55
76766;BME280;65707;52.362;6.588;2022-12-16T12:22:39;101590.63;;;3.24;77.36
76766;BME280;65707;52.362;6.588;2022-12-16T12:25:30;101587.78;;;3.27;76.55
76766;BME280;65707;52.362;6.588;2022-12-16T12:28:45;101604.47;;;3.14;77.33
76766;BME280;65707;52.362;6.588;2022-12-16T12:31:42;101602.50;;;3.18;77.48
76766;BME280;65707;52.362;6.588;2022-12-16T12:34:43;101605.16;;;3.31;76.75
76766;BME280;65707;52.362;6.588;2022-12-16T12:37:38;101606.47;;;3.38;76.54
76766;BME280;65707;52.362;6.588;2022-12-16T12:40:40;101620.41;;;3.27;76.75
76766;BME280;65707;52.362;6.588;2022-12-16T12:43:38;101622.69;;;3.06;77.23
76766;BME280;65707;52.362;6.588;2022-12-16T12:46:38;101620.03;;;3.06;77.64
76766;BME280;65707;52.362;6.588;2022-12-16T12:49:33;101623.97;;;2.74;79.07
76766;BME280;65707;52.362;6.588;2022-12-16T12:52:46;101626.38;;;2.91;78.70
76766;BME280;65707;52.362;6.588;2022-12-16T12:56:08;101608.50;;;2.68;78.53
76766;BME280;65707;52.362;6.588;2022-12-16T12:59:07;101627.97;;;2.67;79.64
76766;BME280;65707;52.362;6.588;2022-12-16T13:02:00;101630.78;;;2.78;79.76
76766;BME280;65707;52.362;6.588;2022-12-16T13:04:49;101630.66;;;2.80;79.31
76766;BME280;65707;52.362;6.588;2022-12-16T13:07:35;101633.97;;;2.83;79.22
76766;BME280;65707;52.362;6.588;2022-12-16T13:10:39;101638.97;;;2.61;79.50
76766;BME280;65707;52.362;6.588;2022-12-16T13:13:32;101633.75;;;2.60;80.28
76766;BME280;65707;52.362;6.588;2022-12-16T13:16:55;101632.50;;;2.79;79.44
76766;BME280;65707;52.362;6.588;2022-12-16T13:19:45;101637.63;;;2.95;78.89
76766;BME280;65707;52.362;6.588;2022-12-16T13:22:36;101646.97;;;3.00;78.69
76766;BME280;65707;52.362;6.588;2022-12-16T13:25:42;101645.78;;;3.18;77.21
76766;BME280;65707;52.362;6.588;2022-12-16T13:29:05;101653.63;;;3.20;77.08
76766;BME280;65707;52.362;6.588;2022-12-16T13:32:00;101660.72;;;3.19;77.50
76766;BME280;65707;52.362;6.588;2022-12-16T13:35:01;101663.03;;;3.11;77.27
76766;BME280;65707;52.362;6.588;2022-12-16T13:37:51;101653.09;;;3.28;77.40
76766;BME280;65707;52.362;6.588;2022-12-16T13:40:52;101657.41;;;3.16;77.23
76766;BME280;65707;52.362;6.588;2022-12-16T13:43:46;101663.56;;;3.16;77.18
76766;BME280;65707;52.362;6.588;2022-12-16T13:46:42;101671.22;;;3.21;76.76
76766;BME280;65707;52.362;6.588;2022-12-16T13:49:42;101683.88;;;3.03;78.02
76766;BME280;65707;52.362;6.588;2022-12-16T13:52:38;101686.16;;;2.95;78.55
76766;BME280;65707;52.362;6.588;2022-12-16T13:55:31;101685.03;;;2.99;78.49
76766;BME280;65707;52.362;6.588;2022-12-16T13:58:28;101693.53;;;3.31;77.75
76766;BME280;65707;52.362;6.588;2022-12-16T14:01:23;101696.41;;;3.28;77.22
76766;BME280;65707;52.362;6.588;2022-12-16T14:04:23;101691.19;;;3.27;77.72
76766;BME280;65707;52.362;6.588;2022-12-16T14:07:10;101699.66;;;3.32;77.35
76766;BME280;65707;52.362;6.588;2022-12-16T14:09:56;101692.03;;;3.27;77.76
76766;BME280;65707;52.362;6.588;2022-12-16T14:12:54;101704.91;;;3.46;77.17
76766;BME280;65707;52.362;6.588;2022-12-16T14:15:50;101703.94;;;3.34;76.87
76766;BME280;65707;52.362;6.588;2022-12-16T14:18:55;101707.94;;;3.27;77.80
76766;BME280;65707;52.362;6.588;2022-12-16T14:21:57;101710.69;;;3.26;76.95
76766;BME280;65707;52.362;6.588;2022-12-16T14:24:49;101705.63;;;3.35;77.58
76766;BME280;65707;52.362;6.588;2022-12-16T14:27:34;101707.84;;;3.29;77.06
76766;BME280;65707;52.362;6.588;2022-12-16T14:30:21;101705.19;;;3.29;77.01
76766;BME280;65707;52.362;6.588;2022-12-16T14:33:20;101720.31;;;3.41;77.61
76766;BME280;65707;52.362;6.588;2022-12-16T14:36:26;101729.09;;;3.14;78.35
76766;BME280;65707;52.362;6.588;2022-12-16T14:39:13;101740.09;;;3.08;78.23